createdAt,value
2022-10-12T00:00:30.191Z,100.00
2022-10-12T00:03:03.061Z,100.00
2022-10-12T00:05:36.511Z,100.00
2022-10-12T00:08:09.935Z,100.00
2022-10-12T00:10:46.374Z,100.00
2022-10-12T00:13:19.765Z,100.00
2022-10-12T00:15:54.483Z,100.00
2022-10-12T00:18:27.394Z,100.00
2022-10-12T00:21:12.298Z,100.00
2022-10-12T00:23:46.406Z,100.00
2022-10-12T00:26:21.020Z,100.00
2022-10-12T00:29:02.572Z,100.00
2022-10-12T00:31:35.533Z,100.00
2022-10-12T00:34:09.009Z,100.00
2022-10-12T00:36:42.047Z,100.00
2022-10-12T00:39:14.961Z,100.00
2022-10-12T00:41:47.745Z,100.00
2022-10-12T00:44:45.084Z,100.00
2022-10-12T00:47:34.249Z,100.00
2022-10-12T00:50:28.120Z,100.00
2022-10-12T00:53:13.184Z,100.00
2022-10-12T00:55:55.805Z,100.00
2022-10-12T00:58:33.606Z,100.00
2022-10-12T01:01:07.808Z,100.00
2022-10-12T01:03:40.969Z,100.00
2022-10-12T01:06:14.312Z,100.00
2022-10-12T01:08:48.159Z,100.00
2022-10-12T01:11:20.978Z,100.00
2022-10-12T01:13:54.159Z,100.00
2022-10-12T01:16:46.457Z,100.00
2022-10-12T01:19:32.932Z,100.00
2022-10-12T01:22:09.734Z,100.00
2022-10-12T01:25:00.515Z,100.00
2022-10-12T01:27:54.459Z,100.00
2022-10-12T01:30:30.897Z,100.00
2022-10-12T01:33:14.078Z,100.00
2022-10-12T01:36:03.807Z,100.00
2022-10-12T01:38:59.079Z,100.00
2022-10-12T01:41:39.442Z,100.00
2022-10-12T01:44:12.252Z,100.00
2022-10-12T01:46:46.444Z,100.00
2022-10-12T01:49:23.808Z,100.00
2022-10-12T01:52:13.851Z,100.00
2022-10-12T01:55:29.289Z,100.00
2022-10-12T01:58:38.168Z,100.00
2022-10-12T02:01:33.958Z,100.00
2022-10-12T02:04:31.591Z,100.00
2022-10-12T02:07:08.432Z,100.00
2022-10-12T02:09:43.468Z,100.00
2022-10-12T02:12:20.169Z,100.00
2022-10-12T02:14:57.750Z,100.00
2022-10-12T02:17:32.975Z,100.00
2022-10-12T02:20:07.666Z,100.00
2022-10-12T02:22:41.819Z,100.00
2022-10-12T02:25:18.297Z,100.00
2022-10-12T02:28:01.414Z,100.00
2022-10-12T02:30:41.532Z,100.00
2022-10-12T02:33:21.833Z,100.00
2022-10-12T02:36:01.909Z,100.00
2022-10-12T02:38:42.146Z,100.00
2022-10-12T02:41:20.723Z,100.00
2022-10-12T02:44:01.914Z,100.00
2022-10-12T02:46:35.911Z,100.00
2022-10-12T02:49:09.481Z,100.00
2022-10-12T02:51:44.012Z,100.00
2022-10-12T02:54:17.778Z,100.00
2022-10-12T02:56:50.847Z,100.00
2022-10-12T02:59:23.891Z,100.00
2022-10-12T03:01:57.126Z,100.00
2022-10-12T03:04:30.095Z,100.00
2022-10-12T03:07:03.902Z,100.00
2022-10-12T03:09:37.085Z,100.00
2022-10-12T03:12:10.769Z,100.00
2022-10-12T03:14:43.790Z,100.00
2022-10-12T03:17:17.738Z,100.00
2022-10-12T03:19:51.185Z,100.00
2022-10-12T03:22:24.224Z,100.00
2022-10-12T03:24:59.402Z,100.00
2022-10-12T03:27:32.517Z,100.00
2022-10-12T03:30:05.959Z,100.00
2022-10-12T03:32:40.777Z,100.00
2022-10-12T03:35:14.184Z,100.00
2022-10-12T03:37:47.274Z,100.00
2022-10-12T03:40:20.285Z,100.00
2022-10-12T03:42:53.072Z,100.00
2022-10-12T03:45:26.596Z,100.00
2022-10-12T03:48:03.859Z,100.00
2022-10-12T03:50:35.226Z,100.00
2022-10-12T03:53:08.627Z,100.00
2022-10-12T03:55:42.839Z,100.00
2022-10-12T03:58:16.242Z,100.00
2022-10-12T04:00:49.410Z,100.00
2022-10-12T04:03:23.009Z,100.00
2022-10-12T04:05:58.095Z,100.00
2022-10-12T04:08:31.718Z,100.00
2022-10-12T04:11:04.794Z,100.00
2022-10-12T04:13:38.738Z,100.00
2022-10-12T04:16:12.177Z,100.00
2022-10-12T04:18:46.414Z,100.00
2022-10-12T04:21:19.770Z,100.00
2022-10-12T04:23:52.630Z,100.00
2022-10-12T04:26:25.486Z,100.00
2022-10-12T04:28:59.342Z,100.00
2022-10-12T04:31:33.174Z,100.00
2022-10-12T04:34:07.745Z,100.00
2022-10-12T04:36:41.452Z,100.00
2022-10-12T04:39:14.462Z,100.00
2022-10-12T04:41:47.988Z,100.00
2022-10-12T04:44:21.206Z,100.00
2022-10-12T04:46:54.074Z,100.00
2022-10-12T04:49:27.449Z,100.00
2022-10-12T04:52:00.242Z,100.00
2022-10-12T04:54:34.553Z,100.00
2022-10-12T04:57:07.353Z,100.00
2022-10-12T04:59:40.739Z,100.00
2022-10-12T05:02:13.695Z,100.00
2022-10-12T05:04:47.184Z,100.00
2022-10-12T05:07:19.869Z,100.00
2022-10-12T05:09:54.033Z,100.00
2022-10-12T05:12:27.029Z,100.00
2022-10-12T05:15:00.237Z,100.00
2022-10-12T05:17:33.112Z,100.00
2022-10-12T05:20:08.242Z,100.00
2022-10-12T05:22:42.269Z,100.00
2022-10-12T05:25:15.294Z,100.00
2022-10-12T05:27:48.223Z,99.92
2022-10-12T05:30:21.191Z,99.26
2022-10-12T05:32:55.227Z,98.57
2022-10-12T05:35:28.290Z,97.94
2022-10-12T05:38:01.568Z,97.55
2022-10-12T05:40:34.614Z,97.37
2022-10-12T05:43:07.779Z,97.19
2022-10-12T05:45:40.538Z,96.37
2022-10-12T05:48:13.386Z,96.03
2022-10-12T05:50:47.131Z,95.42
2022-10-12T05:53:20.337Z,95.23
2022-10-12T05:55:59.578Z,95.23
2022-10-12T05:58:32.892Z,95.12
2022-10-12T06:01:11.826Z,94.78
2022-10-12T06:03:44.835Z,94.93
2022-10-12T06:06:19.277Z,94.76
2022-10-12T06:08:52.097Z,94.63
2022-10-12T06:11:26.220Z,94.40
2022-10-12T06:13:59.582Z,93.98
2022-10-12T06:16:33.305Z,93.82
2022-10-12T06:19:06.974Z,93.55
2022-10-12T06:21:41.154Z,93.27
2022-10-12T06:24:14.245Z,93.11
2022-10-12T06:26:47.870Z,92.56
2022-10-12T06:29:22.507Z,92.39
2022-10-12T06:31:55.537Z,92.10
2022-10-12T06:34:29.133Z,92.35
2022-10-12T06:37:02.351Z,92.04
2022-10-12T06:39:35.598Z,91.89
2022-10-12T06:42:09.670Z,91.35
2022-10-12T06:44:44.953Z,90.76
2022-10-12T06:47:18.626Z,90.43
2022-10-12T06:49:51.548Z,89.93
2022-10-12T06:52:24.571Z,89.34
2022-10-12T06:54:58.233Z,89.03
2022-10-12T06:57:31.698Z,88.67
2022-10-12T07:00:05.016Z,88.41
2022-10-12T07:02:38.430Z,88.35
2022-10-12T07:05:11.706Z,88.14
2022-10-12T07:07:46.607Z,87.85
2022-10-12T07:10:21.020Z,87.93
2022-10-12T07:12:54.174Z,87.70
2022-10-12T07:15:27.171Z,87.18
2022-10-12T07:18:01.569Z,86.74
2022-10-12T07:20:34.730Z,86.31
2022-10-12T07:23:08.226Z,86.39
2022-10-12T07:25:41.956Z,86.21
2022-10-12T07:28:15.237Z,85.62
2022-10-12T07:30:50.364Z,85.36
2022-10-12T07:33:23.195Z,84.45
2022-10-12T07:36:13.245Z,84.13
2022-10-12T07:38:32.045Z,83.32
2022-10-12T07:41:06.613Z,83.12
2022-10-12T07:43:39.532Z,81.96
2022-10-12T07:46:12.824Z,80.60
2022-10-12T07:48:50.188Z,79.30
2022-10-12T07:51:21.179Z,78.92
2022-10-12T07:53:54.360Z,78.60
2022-10-12T07:56:29.063Z,78.36
2022-10-12T07:59:02.448Z,77.71
2022-10-12T08:01:36.022Z,77.11
2022-10-12T08:04:09.156Z,77.27
2022-10-12T08:06:44.511Z,76.87
2022-10-12T08:09:18.020Z,75.62
2022-10-12T08:11:51.135Z,74.19
2022-10-12T08:14:24.865Z,74.23
2022-10-12T08:16:58.289Z,74.06
2022-10-12T08:19:35.334Z,73.59
2022-10-12T08:22:06.821Z,72.09
2022-10-12T08:24:40.343Z,71.56
2022-10-12T08:27:13.537Z,71.62
2022-10-12T08:29:48.139Z,71.05
2022-10-12T08:32:21.027Z,70.04
2022-10-12T08:34:54.339Z,70.00
2022-10-12T08:37:29.891Z,69.86
2022-10-12T08:40:03.746Z,68.76
2022-10-12T08:42:44.689Z,68.45
2022-10-12T08:45:30.594Z,68.07
2022-10-12T08:48:10.473Z,66.67
2022-10-12T08:50:50.815Z,65.75
2022-10-12T08:53:31.196Z,65.69
2022-10-12T08:56:04.575Z,65.11
2022-10-12T08:58:41.815Z,65.53
2022-10-12T09:01:39.166Z,65.12
2022-10-12T09:04:48.177Z,65.11
2022-10-12T09:07:42.934Z,64.92
2022-10-12T09:10:41.177Z,64.21
2022-10-12T09:13:50.258Z,63.75
2022-10-12T09:16:29.175Z,63.63
2022-10-12T09:19:07.325Z,63.17
2022-10-12T09:21:41.763Z,63.07
2022-10-12T09:24:22.726Z,61.87
2022-10-12T09:27:00.786Z,60.78
2022-10-12T09:29:34.344Z,60.67
2022-10-12T09:32:31.590Z,60.71
2022-10-12T09:35:05.396Z,60.41
2022-10-12T09:37:39.237Z,59.80
2022-10-12T09:40:33.397Z,60.06
2022-10-12T09:43:06.909Z,59.77
2022-10-12T09:45:40.487Z,58.74
2022-10-12T09:48:20.809Z,57.20
2022-10-12T09:50:58.337Z,56.73
2022-10-12T09:53:41.055Z,56.76
2022-10-12T09:56:24.464Z,56.24
2022-10-12T09:59:05.689Z,55.54
2022-10-12T10:01:38.837Z,55.88
2022-10-12T10:04:18.333Z,54.71
2022-10-12T10:06:51.590Z,55.07
2022-10-12T10:09:37.240Z,55.14
2022-10-12T10:12:25.667Z,54.06
2022-10-12T10:15:00.276Z,52.78
2022-10-12T10:17:35.728Z,53.10
2022-10-12T10:20:08.749Z,51.48
2022-10-12T10:22:49.138Z,50.33
2022-10-12T10:25:24.524Z,49.77
2022-10-12T10:28:24.279Z,50.48
2022-10-12T10:31:02.731Z,49.93
2022-10-12T10:33:37.917Z,48.87
2022-10-12T10:36:24.791Z,47.30
2022-10-12T10:39:05.635Z,46.57
2022-10-12T10:41:41.539Z,46.65
2022-10-12T10:44:34.881Z,47.84
2022-10-12T10:47:13.464Z,48.46
2022-10-12T10:49:59.490Z,48.50
2022-10-12T10:52:37.135Z,48.57
2022-10-12T10:55:23.128Z,46.75
2022-10-12T10:58:07.965Z,45.98
2022-10-12T11:00:43.771Z,45.49
2022-10-12T11:03:45.960Z,45.78
2022-10-12T11:06:28.999Z,46.21
2022-10-12T11:09:25.969Z,46.35
2022-10-12T11:12:09.509Z,47.25
2022-10-12T11:14:46.795Z,45.87
2022-10-12T11:17:25.573Z,44.78
2022-10-12T11:20:44.789Z,44.42
2022-10-12T11:23:40.092Z,44.07
2022-10-12T11:26:23.287Z,42.29
2022-10-12T11:29:00.405Z,42.90
2022-10-12T11:31:40.264Z,42.83
2022-10-12T11:34:19.174Z,42.26
2022-10-12T11:37:18.666Z,42.86
2022-10-12T11:39:45.163Z,43.06
2022-10-12T11:42:23.134Z,43.51
2022-10-12T11:44:56.317Z,44.18
2022-10-12T11:47:45.831Z,44.29
2022-10-12T11:50:37.360Z,44.17
2022-10-12T11:53:21.252Z,43.90
2022-10-12T11:56:10.986Z,42.92
2022-10-12T11:59:00.554Z,42.81
2022-10-12T12:01:52.999Z,43.52
2022-10-12T12:04:48.256Z,43.61
2022-10-12T12:07:42.719Z,43.71
2022-10-12T12:10:35.564Z,42.66
2022-10-12T12:13:23.629Z,42.17
2022-10-12T12:16:01.326Z,41.26
2022-10-12T12:18:56.688Z,41.47
2022-10-12T12:21:29.917Z,42.53
2022-10-12T12:24:03.045Z,41.51
2022-10-12T12:26:36.533Z,41.08
2022-10-12T12:29:28.370Z,41.73
2022-10-12T12:32:02.791Z,40.62
2022-10-12T12:34:36.653Z,40.49
2022-10-12T12:37:16.731Z,41.38
2022-10-12T12:39:55.135Z,42.05
2022-10-12T12:42:31.490Z,42.28
2022-10-12T12:45:38.169Z,42.81
2022-10-12T12:48:13.289Z,42.30
2022-10-12T12:50:46.964Z,41.37
2022-10-12T12:53:22.027Z,41.15
2022-10-12T12:56:27.069Z,40.70
2022-10-12T12:59:32.579Z,41.48
2022-10-12T13:02:16.313Z,41.34
2022-10-12T13:05:06.032Z,40.79
2022-10-12T13:07:59.127Z,40.51
2022-10-12T13:11:03.877Z,40.50
2022-10-12T13:13:50.234Z,40.63
2022-10-12T13:19:16.579Z,41.00
2022-10-12T13:21:51.889Z,40.93
2022-10-12T13:24:34.553Z,41.66
2022-10-12T13:27:27.432Z,42.01
2022-10-12T13:30:14.051Z,42.60
2022-10-12T13:33:06.631Z,43.08
2022-10-12T13:35:51.599Z,43.42
2022-10-12T13:38:30.504Z,42.83
2022-10-12T13:41:15.993Z,43.63
2022-10-12T13:44:05.814Z,43.47
2022-10-12T13:49:46.012Z,43.68
2022-10-12T13:52:32.831Z,43.95
2022-10-12T13:55:17.571Z,43.97
2022-10-12T13:57:50.913Z,44.63
2022-10-12T14:00:30.477Z,44.57
2022-10-12T14:03:09.484Z,45.13
2022-10-12T14:05:47.641Z,45.69
2022-10-12T14:08:27.438Z,45.56
2022-10-12T14:11:02.001Z,45.42
2022-10-12T14:13:36.782Z,45.07
2022-10-12T14:16:10.151Z,45.34
2022-10-12T14:18:46.335Z,45.70
2022-10-12T14:21:34.574Z,45.60
2022-10-12T14:24:11.928Z,45.82
2022-10-12T14:26:48.198Z,46.22
2022-10-12T14:29:47.395Z,45.95
2022-10-12T14:32:26.759Z,46.50
2022-10-12T14:35:27.821Z,46.60
2022-10-12T14:38:01.871Z,46.96
2022-10-12T14:40:40.225Z,47.13
2022-10-12T14:43:20.870Z,47.19
2022-10-12T14:45:54.617Z,47.41
2022-10-12T14:48:28.067Z,47.71
2022-10-12T14:51:01.108Z,48.11
2022-10-12T14:53:34.251Z,48.30
2022-10-12T14:56:09.646Z,48.30
2022-10-12T14:58:42.956Z,48.63
2022-10-12T15:01:15.844Z,48.36
2022-10-12T15:03:49.949Z,48.48
2022-10-12T15:06:23.110Z,48.72
2022-10-12T15:08:56.045Z,48.81
2022-10-12T15:11:29.904Z,49.08
2022-10-12T15:14:02.772Z,49.36
2022-10-12T15:16:36.066Z,49.38
2022-10-12T15:19:09.941Z,49.60
2022-10-12T15:21:43.796Z,49.72
2022-10-12T15:24:17.248Z,50.31
2022-10-12T15:26:50.414Z,50.78
2022-10-12T15:29:24.058Z,51.06
2022-10-12T15:31:58.621Z,51.09
2022-10-12T15:34:31.442Z,51.36
2022-10-12T15:37:08.827Z,51.71
2022-10-12T15:39:41.869Z,52.02
2022-10-12T15:42:17.422Z,52.27
2022-10-12T15:44:51.021Z,52.38
2022-10-12T15:47:23.948Z,52.69
2022-10-12T15:49:56.895Z,52.77
2022-10-12T15:52:30.505Z,53.10
2022-10-12T15:55:05.108Z,53.95
2022-10-12T15:57:37.936Z,54.77
2022-10-12T16:00:12.516Z,55.05
2022-10-12T16:02:44.932Z,57.39
2022-10-12T16:05:28.315Z,58.79
2022-10-12T16:08:02.577Z,58.51
2022-10-12T16:10:42.121Z,57.31
2022-10-12T16:13:16.900Z,57.11
2022-10-12T16:15:50.574Z,58.27
2022-10-12T16:18:23.486Z,61.00
2022-10-12T16:20:58.397Z,62.12
2022-10-12T16:23:35.651Z,63.63
2022-10-12T16:26:12.919Z,65.09
2022-10-12T16:28:45.747Z,65.94
2022-10-12T16:31:19.533Z,67.18
2022-10-12T16:33:52.316Z,67.80
2022-10-12T16:36:26.135Z,68.42
2022-10-12T16:39:00.070Z,69.07
2022-10-12T16:41:34.271Z,69.66
2022-10-12T16:44:08.472Z,70.66
2022-10-12T16:46:41.617Z,71.12
2022-10-12T16:49:15.166Z,71.39
2022-10-12T16:51:49.901Z,71.69
2022-10-12T16:54:25.294Z,71.96
2022-10-12T16:57:03.561Z,72.37
2022-10-12T16:59:38.707Z,72.66
2022-10-12T17:02:14.381Z,72.26
2022-10-12T17:04:48.636Z,71.95
2022-10-12T17:07:22.404Z,72.62
2022-10-12T17:09:59.189Z,72.97
2022-10-12T17:12:32.306Z,73.16
2022-10-12T17:15:07.376Z,74.01
2022-10-12T17:17:41.357Z,74.28
2022-10-12T17:20:15.782Z,74.68
2022-10-12T17:22:49.305Z,74.34
2022-10-12T17:25:22.375Z,74.34
2022-10-12T17:27:55.560Z,74.63
2022-10-12T17:30:28.721Z,74.57
2022-10-12T17:33:01.611Z,74.94
2022-10-12T17:35:34.894Z,74.91
2022-10-12T17:38:11.479Z,74.43
2022-10-12T17:40:44.567Z,74.77
2022-10-12T17:43:18.018Z,74.84
2022-10-12T17:45:51.181Z,75.09
2022-10-12T17:48:26.434Z,75.48
2022-10-12T17:51:06.328Z,75.81
2022-10-12T17:53:42.853Z,75.78
2022-10-12T17:56:19.014Z,75.74
2022-10-12T17:59:01.320Z,76.12
2022-10-12T18:01:35.665Z,76.25
2022-10-12T18:04:09.218Z,76.44
2022-10-12T18:06:42.697Z,76.79
2022-10-12T18:09:15.986Z,77.02
2022-10-12T18:11:49.275Z,76.64
2022-10-12T18:14:23.937Z,76.60
2022-10-12T18:16:58.590Z,76.67
2022-10-12T18:19:32.929Z,76.71
2022-10-12T18:22:06.128Z,77.04
2022-10-12T18:24:40.744Z,77.47
2022-10-12T18:27:14.150Z,77.22
2022-10-12T18:29:47.412Z,77.14
2022-10-12T18:32:21.095Z,77.57
2022-10-12T18:34:54.928Z,77.68
2022-10-12T18:37:29.065Z,77.27
2022-10-12T18:40:02.318Z,77.48
2022-10-12T18:42:36.061Z,77.41
2022-10-12T18:45:10.330Z,77.87
2022-10-12T18:47:43.312Z,77.79
2022-10-12T18:50:16.554Z,78.03
2022-10-12T18:52:49.574Z,78.25
2022-10-12T18:55:23.242Z,78.70
2022-10-12T18:57:56.222Z,79.02
2022-10-12T19:00:29.154Z,79.38
2022-10-12T19:03:03.287Z,79.56
2022-10-12T19:05:36.343Z,79.68
2022-10-12T19:08:09.963Z,80.13
2022-10-12T19:10:43.812Z,80.42
2022-10-12T19:13:17.199Z,80.93
2022-10-12T19:15:50.318Z,81.20
2022-10-12T19:18:23.904Z,81.22
2022-10-12T19:21:00.017Z,81.34
2022-10-12T19:23:33.626Z,81.49
2022-10-12T19:26:12.438Z,81.43
2022-10-12T19:28:46.704Z,81.15
2022-10-12T19:31:35.299Z,81.61
2022-10-12T19:34:12.622Z,81.85
2022-10-12T19:36:46.703Z,81.78
2022-10-12T19:39:24.304Z,81.76
2022-10-12T19:41:57.522Z,81.60
2022-10-12T19:44:30.440Z,81.87
2022-10-12T19:47:03.860Z,81.93
2022-10-12T19:49:39.171Z,81.42
2022-10-12T19:52:11.807Z,81.36
2022-10-12T19:54:44.891Z,81.39
2022-10-12T19:57:18.527Z,81.33
2022-10-12T19:59:52.845Z,81.26
2022-10-12T20:02:25.933Z,81.61
2022-10-12T20:04:58.929Z,81.72
2022-10-12T20:07:31.931Z,81.96
2022-10-12T20:10:08.192Z,81.69
2022-10-12T20:12:41.701Z,81.80
2022-10-12T20:15:15.131Z,81.60
2022-10-12T20:17:48.348Z,81.10
2022-10-12T20:20:22.323Z,80.37
2022-10-12T20:22:55.283Z,80.08
2022-10-12T20:25:28.168Z,79.85
2022-10-12T20:28:02.686Z,79.55
2022-10-12T20:30:35.711Z,79.16
2022-10-12T20:33:08.851Z,79.17
2022-10-12T20:35:49.951Z,78.99
2022-10-12T20:38:23.743Z,77.75
2022-10-12T20:41:15.912Z,77.21
2022-10-12T20:43:49.894Z,76.44
2022-10-12T20:46:22.964Z,76.42
2022-10-12T20:48:59.463Z,75.85
2022-10-12T20:51:40.017Z,75.49
2022-10-12T20:54:19.231Z,75.49
2022-10-12T20:56:52.309Z,75.57
2022-10-12T20:59:25.659Z,75.64
2022-10-12T21:02:01.741Z,75.67
2022-10-12T21:04:38.538Z,74.99
2022-10-12T21:07:16.474Z,74.66
2022-10-12T21:09:49.835Z,74.66
2022-10-12T21:12:23.125Z,75.22
2022-10-12T21:14:57.574Z,75.21
2022-10-12T21:17:30.830Z,74.82
2022-10-12T21:20:05.211Z,73.78
2022-10-12T21:22:38.932Z,73.37
2022-10-12T21:25:12.109Z,73.09
2022-10-12T21:27:45.235Z,72.28
2022-10-12T21:30:18.310Z,71.35
2022-10-12T21:32:51.262Z,70.84
2022-10-12T21:35:24.684Z,71.68
2022-10-12T21:37:57.596Z,72.58
2022-10-12T21:40:32.116Z,73.43
2022-10-12T21:43:05.553Z,74.25
2022-10-12T21:45:39.155Z,74.75
2022-10-12T21:48:12.546Z,75.07
2022-10-12T21:50:46.082Z,75.63
2022-10-12T21:53:19.007Z,75.85
2022-10-12T21:55:52.089Z,76.04
2022-10-12T21:58:25.286Z,75.70
2022-10-12T22:01:14.250Z,75.56
2022-10-12T22:03:49.972Z,75.81
2022-10-12T22:06:24.804Z,76.29
2022-10-12T22:09:08.063Z,77.01
2022-10-12T22:11:42.916Z,77.83
2022-10-12T22:14:19.481Z,78.40
2022-10-12T22:16:52.228Z,78.85
2022-10-12T22:19:25.178Z,79.11
2022-10-12T22:21:58.112Z,79.43
2022-10-12T22:24:32.737Z,79.66
2022-10-12T22:27:05.649Z,79.46
2022-10-12T22:29:38.732Z,79.67
2022-10-12T22:32:11.699Z,79.75
2022-10-12T22:34:44.513Z,79.79
2022-10-12T22:37:17.396Z,79.59
2022-10-12T22:39:50.235Z,79.46
2022-10-12T22:42:23.176Z,79.49
2022-10-12T22:44:56.947Z,79.28
2022-10-12T22:47:29.958Z,79.31
2022-10-12T22:50:03.197Z,79.44
2022-10-12T22:52:36.759Z,79.41
2022-10-12T22:55:10.999Z,79.50
2022-10-12T22:57:43.789Z,79.77
2022-10-12T23:00:17.814Z,79.54
2022-10-12T23:02:51.530Z,79.62
2022-10-12T23:05:24.460Z,79.58
2022-10-12T23:07:59.312Z,79.90
2022-10-12T23:10:33.325Z,79.44
2022-10-12T23:13:06.773Z,78.75
2022-10-12T23:15:39.861Z,78.83
2022-10-12T23:18:13.614Z,78.82
2022-10-12T23:20:46.431Z,78.36
2022-10-12T23:23:19.385Z,77.90
2022-10-12T23:25:54.124Z,77.54
2022-10-12T23:28:27.446Z,77.61
2022-10-12T23:31:00.422Z,77.31
2022-10-12T23:33:33.907Z,77.14
2022-10-12T23:36:13.705Z,77.36
2022-10-12T23:38:47.061Z,77.48
2022-10-12T23:41:20.152Z,77.15
2022-10-12T23:43:53.183Z,77.17
2022-10-12T23:46:26.517Z,76.79
2022-10-12T23:49:01.521Z,76.99
2022-10-12T23:51:34.940Z,77.07
2022-10-12T23:54:07.986Z,77.16
2022-10-12T23:56:41.306Z,77.32
2022-10-12T23:59:14.570Z,77.46
